sensor_id;sensor_type;location;lat;lon;timestamp;P1;durP1;ratioP1;P2;durP2;ratioP2
44139;SDS011;29803;51.048;4.686;2022-08-21T00:00:00;11.18;;;5.60;;
44139;SDS011;29803;51.048;4.686;2022-08-21T00:02:31;11.77;;;5.18;;
44139;SDS011;29803;51.048;4.686;2022-08-21T00:05:02;10.30;;;5.47;;
44139;SDS011;29803;51.048;4.686;2022-08-21T00:07:33;11.00;;;5.05;;
44139;SDS011;29803;51.048;4.686;2022-08-21T00:10:04;11.27;;;5.88;;
44139;SDS011;29803;51.048;4.686;2022-08-21T00:12:36;12.98;;;5.75;;
44139;SDS011;29803;51.048;4.686;2022-08-21T00:15:07;13.18;;;5.55;;
44139;SDS011;29803;51.048;4.686;2022-08-21T00:17:40;9.77;;;5.50;;
44139;SDS011;29803;51.048;4.686;2022-08-21T00:20:11;12.88;;;5.68;;
44139;SDS011;29803;51.048;4.686;2022-08-21T00:22:44;18.98;;;6.63;;
44139;SDS011;29803;51.048;4.686;2022-08-21T00:25:15;16.80;;;5.97;;
44139;SDS011;29803;51.048;4.686;2022-08-21T00:27:46;13.65;;;5.43;;
44139;SDS011;29803;51.048;4.686;2022-08-21T00:30:18;12.77;;;4.97;;
44139;SDS011;29803;51.048;4.686;2022-08-21T00:32:50;10.15;;;4.55;;
44139;SDS011;29803;51.048;4.686;2022-08-21T00:35:25;12.05;;;4.88;;
44139;SDS011;29803;51.048;4.686;2022-08-21T00:37:58;12.30;;;4.88;;
44139;SDS011;29803;51.048;4.686;2022-08-21T00:40:35;9.90;;;5.38;;
44139;SDS011;29803;51.048;4.686;2022-08-21T00:43:08;10.98;;;5.43;;
44139;SDS011;29803;51.048;4.686;2022-08-21T00:45:40;11.35;;;5.88;;
44139;SDS011;29803;51.048;4.686;2022-08-21T00:48:10;14.25;;;5.57;;
44139;SDS011;29803;51.048;4.686;2022-08-21T00:50:43;10.07;;;5.47;;
44139;SDS011;29803;51.048;4.686;2022-08-21T00:53:18;10.55;;;5.28;;
44139;SDS011;29803;51.048;4.686;2022-08-21T00:55:49;10.20;;;4.45;;
44139;SDS011;29803;51.048;4.686;2022-08-21T00:58:20;8.57;;;4.75;;
44139;SDS011;29803;51.048;4.686;2022-08-21T01:00:51;9.00;;;5.10;;
44139;SDS011;29803;51.048;4.686;2022-08-21T01:03:23;10.25;;;5.47;;
44139;SDS011;29803;51.048;4.686;2022-08-21T01:05:55;15.75;;;5.43;;
44139;SDS011;29803;51.048;4.686;2022-08-21T01:08:26;11.93;;;5.13;;
44139;SDS011;29803;51.048;4.686;2022-08-21T01:10:59;13.73;;;5.38;;
44139;SDS011;29803;51.048;4.686;2022-08-21T01:13:32;15.70;;;4.85;;
44139;SDS011;29803;51.048;4.686;2022-08-21T01:16:08;15.57;;;5.22;;
44139;SDS011;29803;51.048;4.686;2022-08-21T01:18:40;8.48;;;5.15;;
44139;SDS011;29803;51.048;4.686;2022-08-21T01:21:12;12.32;;;5.22;;
44139;SDS011;29803;51.048;4.686;2022-08-21T01:23:46;10.65;;;5.25;;
44139;SDS011;29803;51.048;4.686;2022-08-21T01:26:22;10.80;;;5.20;;
44139;SDS011;29803;51.048;4.686;2022-08-21T01:28:57;12.60;;;6.00;;
44139;SDS011;29803;51.048;4.686;2022-08-21T01:31:30;12.00;;;5.20;;
44139;SDS011;29803;51.048;4.686;2022-08-21T01:34:02;9.38;;;4.50;;
44139;SDS011;29803;51.048;4.686;2022-08-21T01:36:34;10.18;;;5.30;;
44139;SDS011;29803;51.048;4.686;2022-08-21T01:39:05;6.78;;;4.28;;
44139;SDS011;29803;51.048;4.686;2022-08-21T01:41:37;12.82;;;5.50;;
44139;SDS011;29803;51.048;4.686;2022-08-21T01:44:07;12.13;;;4.55;;
44139;SDS011;29803;51.048;4.686;2022-08-21T01:46:38;14.02;;;5.45;;
44139;SDS011;29803;51.048;4.686;2022-08-21T01:49:09;7.50;;;4.30;;
44139;SDS011;29803;51.048;4.686;2022-08-21T01:51:39;9.60;;;5.10;;
44139;SDS011;29803;51.048;4.686;2022-08-21T01:54:11;9.55;;;4.40;;
44139;SDS011;29803;51.048;4.686;2022-08-21T01:56:43;11.98;;;4.50;;
44139;SDS011;29803;51.048;4.686;2022-08-21T01:59:16;7.70;;;4.72;;
44139;SDS011;29803;51.048;4.686;2022-08-21T02:01:50;11.40;;;5.72;;
44139;SDS011;29803;51.048;4.686;2022-08-21T02:04:22;16.23;;;6.00;;
44139;SDS011;29803;51.048;4.686;2022-08-21T02:06:52;8.48;;;4.95;;
44139;SDS011;29803;51.048;4.686;2022-08-21T02:09:33;9.10;;;4.65;;
44139;SDS011;29803;51.048;4.686;2022-08-21T02:12:04;11.13;;;5.28;;
44139;SDS011;29803;51.048;4.686;2022-08-21T02:14:35;14.18;;;5.32;;
44139;SDS011;29803;51.048;4.686;2022-08-21T02:17:06;10.60;;;5.60;;
44139;SDS011;29803;51.048;4.686;2022-08-21T02:19:38;12.40;;;4.53;;
44139;SDS011;29803;51.048;4.686;2022-08-21T02:22:09;10.55;;;4.47;;
44139;SDS011;29803;51.048;4.686;2022-08-21T02:24:40;6.93;;;3.95;;
44139;SDS011;29803;51.048;4.686;2022-08-21T02:27:10;8.60;;;3.60;;
44139;SDS011;29803;51.048;4.686;2022-08-21T02:29:41;5.70;;;3.50;;
44139;SDS011;29803;51.048;4.686;2022-08-21T02:32:11;6.47;;;3.03;;
44139;SDS011;29803;51.048;4.686;2022-08-21T02:34:42;11.45;;;5.00;;
44139;SDS011;29803;51.048;4.686;2022-08-21T02:37:12;11.93;;;4.60;;
44139;SDS011;29803;51.048;4.686;2022-08-21T02:39:43;15.88;;;6.07;;
44139;SDS011;29803;51.048;4.686;2022-08-21T02:42:13;10.13;;;5.20;;
44139;SDS011;29803;51.048;4.686;2022-08-21T02:44:44;12.52;;;4.15;;
44139;SDS011;29803;51.048;4.686;2022-08-21T02:47:14;8.93;;;5.03;;
44139;SDS011;29803;51.048;4.686;2022-08-21T02:49:45;8.43;;;3.90;;
44139;SDS011;29803;51.048;4.686;2022-08-21T02:52:15;11.25;;;4.30;;
44139;SDS011;29803;51.048;4.686;2022-08-21T02:54:46;8.57;;;4.55;;
44139;SDS011;29803;51.048;4.686;2022-08-21T02:57:16;12.32;;;4.57;;
44139;SDS011;29803;51.048;4.686;2022-08-21T02:59:47;8.85;;;3.95;;
44139;SDS011;29803;51.048;4.686;2022-08-21T03:02:17;10.70;;;4.80;;
44139;SDS011;29803;51.048;4.686;2022-08-21T03:04:48;14.77;;;5.15;;
44139;SDS011;29803;51.048;4.686;2022-08-21T03:07:18;10.35;;;4.45;;
44139;SDS011;29803;51.048;4.686;2022-08-21T03:09:49;10.38;;;4.68;;
44139;SDS011;29803;51.048;4.686;2022-08-21T03:12:19;14.05;;;4.88;;
44139;SDS011;29803;51.048;4.686;2022-08-21T03:14:50;8.95;;;4.05;;
44139;SDS011;29803;51.048;4.686;2022-08-21T03:17:21;9.63;;;4.35;;
44139;SDS011;29803;51.048;4.686;2022-08-21T03:19:51;9.85;;;4.60;;
44139;SDS011;29803;51.048;4.686;2022-08-21T03:22:22;11.02;;;4.72;;
44139;SDS011;29803;51.048;4.686;2022-08-21T03:24:53;13.48;;;4.63;;
44139;SDS011;29803;51.048;4.686;2022-08-21T03:27:23;9.10;;;4.50;;
44139;SDS011;29803;51.048;4.686;2022-08-21T03:29:54;9.60;;;4.10;;
44139;SDS011;29803;51.048;4.686;2022-08-21T03:32:26;14.38;;;4.70;;
44139;SDS011;29803;51.048;4.686;2022-08-21T03:34:57;10.70;;;4.07;;
44139;SDS011;29803;51.048;4.686;2022-08-21T03:37:28;10.13;;;4.25;;
44139;SDS011;29803;51.048;4.686;2022-08-21T03:39:59;10.80;;;3.60;;
44139;SDS011;29803;51.048;4.686;2022-08-21T03:42:29;31.08;;;3.55;;
44139;SDS011;29803;51.048;4.686;2022-08-21T03:45:00;70.80;;;4.10;;
44139;SDS011;29803;51.048;4.686;2022-08-21T03:47:32;8.90;;;2.22;;
44139;SDS011;29803;51.048;4.686;2022-08-21T03:50:03;8.82;;;3.00;;
44139;SDS011;29803;51.048;4.686;2022-08-21T03:52:34;8.85;;;2.92;;
44139;SDS011;29803;51.048;4.686;2022-08-21T03:55:05;5.35;;;2.67;;
44139;SDS011;29803;51.048;4.686;2022-08-21T03:57:36;6.25;;;3.17;;
44139;SDS011;29803;51.048;4.686;2022-08-21T04:00:08;7.50;;;3.42;;
44139;SDS011;29803;51.048;4.686;2022-08-21T04:02:42;4.97;;;2.83;;
44139;SDS011;29803;51.048;4.686;2022-08-21T04:05:14;8.63;;;3.78;;
44139;SDS011;29803;51.048;4.686;2022-08-21T04:07:57;9.07;;;4.10;;
44139;SDS011;29803;51.048;4.686;2022-08-21T04:10:32;12.32;;;3.90;;
44139;SDS011;29803;51.048;4.686;2022-08-21T04:13:06;8.45;;;3.60;;
44139;SDS011;29803;51.048;4.686;2022-08-21T04:15:37;9.25;;;3.63;;
44139;SDS011;29803;51.048;4.686;2022-08-21T04:18:09;9.55;;;2.65;;
44139;SDS011;29803;51.048;4.686;2022-08-21T04:20:40;7.07;;;3.03;;
44139;SDS011;29803;51.048;4.686;2022-08-21T04:23:13;3.10;;;2.42;;
44139;SDS011;29803;51.048;4.686;2022-08-21T04:25:43;9.27;;;2.88;;
44139;SDS011;29803;51.048;4.686;2022-08-21T04:28:14;6.55;;;2.63;;
44139;SDS011;29803;51.048;4.686;2022-08-21T04:30:44;5.72;;;2.58;;
44139;SDS011;29803;51.048;4.686;2022-08-21T04:33:15;6.63;;;3.33;;
44139;SDS011;29803;51.048;4.686;2022-08-21T04:35:46;6.65;;;3.05;;
44139;SDS011;29803;51.048;4.686;2022-08-21T04:38:17;6.07;;;2.80;;
44139;SDS011;29803;51.048;4.686;2022-08-21T04:40:49;4.38;;;3.00;;
44139;SDS011;29803;51.048;4.686;2022-08-21T04:43:20;5.75;;;3.13;;
44139;SDS011;29803;51.048;4.686;2022-08-21T04:45:53;6.88;;;3.10;;
44139;SDS011;29803;51.048;4.686;2022-08-21T04:48:24;8.02;;;3.22;;
44139;SDS011;29803;51.048;4.686;2022-08-21T04:50:57;7.43;;;3.88;;
44139;SDS011;29803;51.048;4.686;2022-08-21T04:56:41;15.80;;;3.83;;
44139;SDS011;29803;51.048;4.686;2022-08-21T04:59:17;11.27;;;4.40;;
44139;SDS011;29803;51.048;4.686;2022-08-21T05:01:51;10.40;;;3.78;;
44139;SDS011;29803;51.048;4.686;2022-08-21T05:04:25;12.38;;;4.20;;
44139;SDS011;29803;51.048;4.686;2022-08-21T05:06:59;10.90;;;4.47;;
44139;SDS011;29803;51.048;4.686;2022-08-21T05:09:33;11.27;;;4.70;;
44139;SDS011;29803;51.048;4.686;2022-08-21T05:12:05;11.23;;;4.15;;
44139;SDS011;29803;51.048;4.686;2022-08-21T05:14:36;13.95;;;5.05;;
44139;SDS011;29803;51.048;4.686;2022-08-21T05:17:06;9.43;;;4.10;;
44139;SDS011;29803;51.048;4.686;2022-08-21T05:19:37;9.73;;;5.18;;
44139;SDS011;29803;51.048;4.686;2022-08-21T05:22:07;8.80;;;3.63;;
44139;SDS011;29803;51.048;4.686;2022-08-21T05:24:39;11.82;;;3.63;;
44139;SDS011;29803;51.048;4.686;2022-08-21T05:27:09;12.35;;;4.57;;
44139;SDS011;29803;51.048;4.686;2022-08-21T05:29:40;11.77;;;4.15;;
44139;SDS011;29803;51.048;4.686;2022-08-21T05:32:11;8.52;;;3.80;;
44139;SDS011;29803;51.048;4.686;2022-08-21T05:34:42;11.40;;;4.05;;
44139;SDS011;29803;51.048;4.686;2022-08-21T05:37:13;14.05;;;5.43;;
44139;SDS011;29803;51.048;4.686;2022-08-21T05:39:44;17.95;;;5.70;;
44139;SDS011;29803;51.048;4.686;2022-08-21T05:42:15;11.32;;;4.95;;
44139;SDS011;29803;51.048;4.686;2022-08-21T05:44:46;11.13;;;4.57;;
44139;SDS011;29803;51.048;4.686;2022-08-21T05:47:16;11.88;;;4.53;;
44139;SDS011;29803;51.048;4.686;2022-08-21T05:49:47;15.38;;;4.80;;
44139;SDS011;29803;51.048;4.686;2022-08-21T05:52:19;14.85;;;4.30;;
44139;SDS011;29803;51.048;4.686;2022-08-21T05:54:50;14.45;;;4.95;;
44139;SDS011;29803;51.048;4.686;2022-08-21T05:57:24;14.45;;;4.38;;
44139;SDS011;29803;51.048;4.686;2022-08-21T05:59:55;11.38;;;3.90;;
44139;SDS011;29803;51.048;4.686;2022-08-21T06:02:26;15.85;;;4.00;;
44139;SDS011;29803;51.048;4.686;2022-08-21T06:04:56;11.55;;;3.00;;
44139;SDS011;29803;51.048;4.686;2022-08-21T06:07:27;17.45;;;3.15;;
44139;SDS011;29803;51.048;4.686;2022-08-21T06:09:58;7.88;;;2.50;;
44139;SDS011;29803;51.048;4.686;2022-08-21T06:12:29;13.98;;;3.45;;
44139;SDS011;29803;51.048;4.686;2022-08-21T06:15:00;9.20;;;2.53;;
44139;SDS011;29803;51.048;4.686;2022-08-21T06:17:30;10.63;;;2.55;;
44139;SDS011;29803;51.048;4.686;2022-08-21T06:20:01;8.93;;;2.13;;
44139;SDS011;29803;51.048;4.686;2022-08-21T06:22:33;7.38;;;1.92;;
44139;SDS011;29803;51.048;4.686;2022-08-21T06:25:04;10.00;;;2.00;;
44139;SDS011;29803;51.048;4.686;2022-08-21T06:27:35;10.98;;;2.20;;
44139;SDS011;29803;51.048;4.686;2022-08-21T06:30:05;7.18;;;2.45;;
44139;SDS011;29803;51.048;4.686;2022-08-21T06:32:37;7.93;;;2.15;;
44139;SDS011;29803;51.048;4.686;2022-08-21T06:35:08;7.75;;;2.35;;
44139;SDS011;29803;51.048;4.686;2022-08-21T06:37:39;6.82;;;1.90;;
44139;SDS011;29803;51.048;4.686;2022-08-21T06:40:09;8.77;;;2.30;;
44139;SDS011;29803;51.048;4.686;2022-08-21T06:42:40;7.78;;;1.88;;
44139;SDS011;29803;51.048;4.686;2022-08-21T06:45:11;9.07;;;1.95;;
44139;SDS011;29803;51.048;4.686;2022-08-21T06:47:41;11.13;;;2.35;;
44139;SDS011;29803;51.048;4.686;2022-08-21T06:50:11;5.50;;;1.90;;
44139;SDS011;29803;51.048;4.686;2022-08-21T06:52:42;5.40;;;1.95;;
44139;SDS011;29803;51.048;4.686;2022-08-21T06:55:13;11.10;;;1.90;;
44139;SDS011;29803;51.048;4.686;2022-08-21T06:57:44;13.40;;;2.25;;
44139;SDS011;29803;51.048;4.686;2022-08-21T07:00:14;11.60;;;2.30;;
44139;SDS011;29803;51.048;4.686;2022-08-21T07:02:45;6.93;;;2.10;;
44139;SDS011;29803;51.048;4.686;2022-08-21T07:05:16;9.73;;;2.17;;
44139;SDS011;29803;51.048;4.686;2022-08-21T07:07:46;8.07;;;2.08;;
44139;SDS011;29803;51.048;4.686;2022-08-21T07:10:17;10.95;;;2.33;;
44139;SDS011;29803;51.048;4.686;2022-08-21T07:12:48;9.23;;;2.47;;
44139;SDS011;29803;51.048;4.686;2022-08-21T07:15:20;12.10;;;3.08;;
44139;SDS011;29803;51.048;4.686;2022-08-21T07:17:50;7.68;;;1.90;;
44139;SDS011;29803;51.048;4.686;2022-08-21T07:20:21;6.28;;;2.30;;
44139;SDS011;29803;51.048;4.686;2022-08-21T07:22:52;7.85;;;2.40;;
44139;SDS011;29803;51.048;4.686;2022-08-21T07:25:22;11.43;;;2.40;;
44139;SDS011;29803;51.048;4.686;2022-08-21T07:27:53;9.02;;;2.10;;
44139;SDS011;29803;51.048;4.686;2022-08-21T07:30:23;9.95;;;1.63;;
44139;SDS011;29803;51.048;4.686;2022-08-21T07:32:54;6.45;;;2.00;;
44139;SDS011;29803;51.048;4.686;2022-08-21T07:35:25;8.40;;;2.30;;
44139;SDS011;29803;51.048;4.686;2022-08-21T07:37:57;12.57;;;2.30;;
44139;SDS011;29803;51.048;4.686;2022-08-21T07:40:28;9.13;;;1.83;;
44139;SDS011;29803;51.048;4.686;2022-08-21T07:43:02;10.23;;;1.85;;
44139;SDS011;29803;51.048;4.686;2022-08-21T07:45:32;10.07;;;2.08;;
44139;SDS011;29803;51.048;4.686;2022-08-21T07:48:04;10.07;;;2.28;;
44139;SDS011;29803;51.048;4.686;2022-08-21T07:50:34;10.00;;;2.20;;
44139;SDS011;29803;51.048;4.686;2022-08-21T07:53:05;11.40;;;2.17;;
44139;SDS011;29803;51.048;4.686;2022-08-21T07:55:37;11.50;;;2.42;;
44139;SDS011;29803;51.048;4.686;2022-08-21T07:58:08;10.90;;;2.25;;
44139;SDS011;29803;51.048;4.686;2022-08-21T08:00:39;7.22;;;1.60;;
44139;SDS011;29803;51.048;4.686;2022-08-21T08:03:10;8.82;;;1.90;;
44139;SDS011;29803;51.048;4.686;2022-08-21T08:05:41;9.55;;;1.98;;
44139;SDS011;29803;51.048;4.686;2022-08-21T08:08:11;10.25;;;2.40;;
44139;SDS011;29803;51.048;4.686;2022-08-21T08:10:42;13.73;;;1.90;;
44139;SDS011;29803;51.048;4.686;2022-08-21T08:13:13;8.07;;;2.10;;
44139;SDS011;29803;51.048;4.686;2022-08-21T08:15:44;10.77;;;2.50;;
44139;SDS011;29803;51.048;4.686;2022-08-21T08:18:15;9.30;;;2.17;;
44139;SDS011;29803;51.048;4.686;2022-08-21T08:20:45;10.93;;;2.08;;
44139;SDS011;29803;51.048;4.686;2022-08-21T08:23:16;10.80;;;1.95;;
44139;SDS011;29803;51.048;4.686;2022-08-21T08:25:46;12.07;;;2.33;;
44139;SDS011;29803;51.048;4.686;2022-08-21T08:28:17;8.73;;;2.47;;
44139;SDS011;29803;51.048;4.686;2022-08-21T08:30:47;6.95;;;1.60;;
44139;SDS011;29803;51.048;4.686;2022-08-21T08:33:19;7.90;;;1.73;;
44139;SDS011;29803;51.048;4.686;2022-08-21T08:35:50;6.47;;;1.58;;
44139;SDS011;29803;51.048;4.686;2022-08-21T08:38:22;7.13;;;1.90;;
44139;SDS011;29803;51.048;4.686;2022-08-21T08:43:44;10.38;;;1.95;;
44139;SDS011;29803;51.048;4.686;2022-08-21T08:46:26;7.95;;;1.80;;
44139;SDS011;29803;51.048;4.686;2022-08-21T08:49:06;6.72;;;1.63;;
44139;SDS011;29803;51.048;4.686;2022-08-21T08:51:45;13.60;;;1.92;;
44139;SDS011;29803;51.048;4.686;2022-08-21T08:57:16;10.60;;;1.90;;
44139;SDS011;29803;51.048;4.686;2022-08-21T08:59:49;8.23;;;2.23;;
44139;SDS011;29803;51.048;4.686;2022-08-21T09:02:22;9.80;;;1.53;;
44139;SDS011;29803;51.048;4.686;2022-08-21T09:04:54;11.35;;;1.65;;
44139;SDS011;29803;51.048;4.686;2022-08-21T09:19:59;7.00;;;1.60;;
44139;SDS011;29803;51.048;4.686;2022-08-21T09:28:31;6.05;;;1.27;;
44139;SDS011;29803;51.048;4.686;2022-08-21T09:31:06;3.72;;;1.40;;
44139;SDS011;29803;51.048;4.686;2022-08-21T09:33:38;6.68;;;1.70;;
44139;SDS011;29803;51.048;4.686;2022-08-21T09:36:08;12.23;;;2.38;;
44139;SDS011;29803;51.048;4.686;2022-08-21T09:38:40;7.50;;;1.50;;
44139;SDS011;29803;51.048;4.686;2022-08-21T09:41:10;7.95;;;1.75;;
44139;SDS011;29803;51.048;4.686;2022-08-21T09:43:51;10.07;;;1.88;;
44139;SDS011;29803;51.048;4.686;2022-08-21T09:46:24;6.22;;;1.60;;
44139;SDS011;29803;51.048;4.686;2022-08-21T09:48:57;5.20;;;1.38;;
44139;SDS011;29803;51.048;4.686;2022-08-21T09:51:31;8.25;;;1.88;;
44139;SDS011;29803;51.048;4.686;2022-08-21T09:56:37;5.63;;;1.30;;
44139;SDS011;29803;51.048;4.686;2022-08-21T09:59:30;14.00;;;1.90;;
44139;SDS011;29803;51.048;4.686;2022-08-21T10:02:30;10.37;;;1.87;;
44139;SDS011;29803;51.048;4.686;2022-08-21T10:05:04;7.15;;;2.03;;
44139;SDS011;29803;51.048;4.686;2022-08-21T10:07:45;6.28;;;1.67;;
44139;SDS011;29803;51.048;4.686;2022-08-21T10:10:19;10.57;;;1.80;;
44139;SDS011;29803;51.048;4.686;2022-08-21T10:12:57;10.40;;;2.22;;
44139;SDS011;29803;51.048;4.686;2022-08-21T10:15:51;10.25;;;2.10;;
44139;SDS011;29803;51.048;4.686;2022-08-21T10:18:27;12.68;;;2.15;;
44139;SDS011;29803;51.048;4.686;2022-08-21T10:30:05;11.32;;;1.75;;
44139;SDS011;29803;51.048;4.686;2022-08-21T10:35:32;9.25;;;1.88;;
44139;SDS011;29803;51.048;4.686;2022-08-21T10:44:04;10.70;;;1.58;;
44139;SDS011;29803;51.048;4.686;2022-08-21T10:52:25;5.93;;;1.83;;
44139;SDS011;29803;51.048;4.686;2022-08-21T11:00:43;6.28;;;1.55;;
44139;SDS011;29803;51.048;4.686;2022-08-21T11:03:21;8.05;;;2.10;;
44139;SDS011;29803;51.048;4.686;2022-08-21T11:06:11;10.90;;;1.98;;
44139;SDS011;29803;51.048;4.686;2022-08-21T11:09:12;8.88;;;1.67;;
44139;SDS011;29803;51.048;4.686;2022-08-21T11:17:22;7.97;;;2.15;;
44139;SDS011;29803;51.048;4.686;2022-08-21T11:23:04;9.63;;;2.40;;
44139;SDS011;29803;51.048;4.686;2022-08-21T11:25:45;8.73;;;2.13;;
44139;SDS011;29803;51.048;4.686;2022-08-21T11:28:24;7.40;;;1.95;;
44139;SDS011;29803;51.048;4.686;2022-08-21T11:31:02;6.22;;;2.00;;
44139;SDS011;29803;51.048;4.686;2022-08-21T11:36:12;9.15;;;1.90;;
44139;SDS011;29803;51.048;4.686;2022-08-21T11:38:46;5.43;;;1.85;;
44139;SDS011;29803;51.048;4.686;2022-08-21T11:41:37;12.57;;;1.90;;
44139;SDS011;29803;51.048;4.686;2022-08-21T11:44:16;5.45;;;1.48;;
44139;SDS011;29803;51.048;4.686;2022-08-21T11:49:59;9.75;;;1.95;;
44139;SDS011;29803;51.048;4.686;2022-08-21T11:52:43;11.10;;;2.28;;
44139;SDS011;29803;51.048;4.686;2022-08-21T11:58:11;7.30;;;1.83;;
44139;SDS011;29803;51.048;4.686;2022-08-21T12:00:52;11.13;;;2.22;;
44139;SDS011;29803;51.048;4.686;2022-08-21T12:03:28;8.02;;;1.90;;
44139;SDS011;29803;51.048;4.686;2022-08-21T12:06:06;4.93;;;1.60;;
44139;SDS011;29803;51.048;4.686;2022-08-21T12:08:41;7.63;;;2.03;;
44139;SDS011;29803;51.048;4.686;2022-08-21T12:16:35;15.13;;;2.58;;
44139;SDS011;29803;51.048;4.686;2022-08-21T12:19:09;13.60;;;2.20;;
44139;SDS011;29803;51.048;4.686;2022-08-21T12:24:40;8.10;;;1.85;;
44139;SDS011;29803;51.048;4.686;2022-08-21T12:32:43;9.75;;;2.50;;
44139;SDS011;29803;51.048;4.686;2022-08-21T12:35:31;12.02;;;2.22;;
44139;SDS011;29803;51.048;4.686;2022-08-21T12:38:12;5.05;;;1.60;;
44139;SDS011;29803;51.048;4.686;2022-08-21T12:40:47;7.85;;;2.00;;
44139;SDS011;29803;51.048;4.686;2022-08-21T12:43:37;10.88;;;2.17;;
44139;SDS011;29803;51.048;4.686;2022-08-21T12:46:16;8.70;;;1.83;;
44139;SDS011;29803;51.048;4.686;2022-08-21T12:51:46;7.72;;;2.03;;
44139;SDS011;29803;51.048;4.686;2022-08-21T12:57:18;6.72;;;1.77;;
44139;SDS011;29803;51.048;4.686;2022-08-21T12:59:52;14.20;;;2.75;;
44139;SDS011;29803;51.048;4.686;2022-08-21T13:02:28;7.22;;;2.30;;
44139;SDS011;29803;51.048;4.686;2022-08-21T13:05:03;8.20;;;2.00;;
44139;SDS011;29803;51.048;4.686;2022-08-21T13:07:35;11.65;;;2.20;;
44139;SDS011;29803;51.048;4.686;2022-08-21T13:10:21;10.32;;;2.25;;
44139;SDS011;29803;51.048;4.686;2022-08-21T13:13:01;10.23;;;2.05;;
44139;SDS011;29803;51.048;4.686;2022-08-21T13:15:36;10.85;;;2.30;;
44139;SDS011;29803;51.048;4.686;2022-08-21T13:18:08;10.65;;;2.47;;
44139;SDS011;29803;51.048;4.686;2022-08-21T13:20:50;11.60;;;1.88;;
44139;SDS011;29803;51.048;4.686;2022-08-21T13:23:23;9.02;;;2.50;;
44139;SDS011;29803;51.048;4.686;2022-08-21T13:25:55;7.47;;;1.93;;
44139;SDS011;29803;51.048;4.686;2022-08-21T13:31:19;8.30;;;1.92;;
44139;SDS011;29803;51.048;4.686;2022-08-21T13:33:56;12.25;;;2.20;;
44139;SDS011;29803;51.048;4.686;2022-08-21T13:36:29;9.40;;;2.25;;
44139;SDS011;29803;51.048;4.686;2022-08-21T13:39:04;9.52;;;1.98;;
44139;SDS011;29803;51.048;4.686;2022-08-21T13:41:38;10.65;;;2.33;;
44139;SDS011;29803;51.048;4.686;2022-08-21T13:44:14;7.70;;;1.57;;
44139;SDS011;29803;51.048;4.686;2022-08-21T13:46:48;9.80;;;2.80;;
44139;SDS011;29803;51.048;4.686;2022-08-21T13:49:22;6.57;;;1.80;;
44139;SDS011;29803;51.048;4.686;2022-08-21T13:52:00;12.55;;;2.10;;
44139;SDS011;29803;51.048;4.686;2022-08-21T13:57:30;10.07;;;2.60;;
44139;SDS011;29803;51.048;4.686;2022-08-21T14:00:15;12.93;;;2.83;;
44139;SDS011;29803;51.048;4.686;2022-08-21T14:06:01;7.57;;;1.92;;
44139;SDS011;29803;51.048;4.686;2022-08-21T14:08:34;8.63;;;1.92;;
44139;SDS011;29803;51.048;4.686;2022-08-21T14:11:09;10.02;;;2.20;;
44139;SDS011;29803;51.048;4.686;2022-08-21T14:13:43;4.90;;;1.60;;
44139;SDS011;29803;51.048;4.686;2022-08-21T14:16:18;11.27;;;2.10;;
44139;SDS011;29803;51.048;4.686;2022-08-21T14:18:52;11.00;;;1.90;;
44139;SDS011;29803;51.048;4.686;2022-08-21T14:21:41;10.55;;;2.03;;
44139;SDS011;29803;51.048;4.686;2022-08-21T14:26:55;9.32;;;2.28;;
44139;SDS011;29803;51.048;4.686;2022-08-21T14:29:33;11.25;;;2.20;;
44139;SDS011;29803;51.048;4.686;2022-08-21T14:32:09;11.80;;;2.10;;
44139;SDS011;29803;51.048;4.686;2022-08-21T14:34:43;8.55;;;1.65;;
44139;SDS011;29803;51.048;4.686;2022-08-21T14:37:13;9.45;;;2.47;;
44139;SDS011;29803;51.048;4.686;2022-08-21T14:39:44;7.38;;;2.00;;
44139;SDS011;29803;51.048;4.686;2022-08-21T14:42:15;8.13;;;2.13;;
44139;SDS011;29803;51.048;4.686;2022-08-21T14:44:46;12.77;;;1.98;;
44139;SDS011;29803;51.048;4.686;2022-08-21T14:47:17;6.53;;;1.45;;
44139;SDS011;29803;51.048;4.686;2022-08-21T14:49:48;8.00;;;1.77;;
44139;SDS011;29803;51.048;4.686;2022-08-21T14:52:19;8.80;;;2.13;;
44139;SDS011;29803;51.048;4.686;2022-08-21T14:54:50;8.95;;;1.98;;
44139;SDS011;29803;51.048;4.686;2022-08-21T14:57:20;8.13;;;1.92;;
44139;SDS011;29803;51.048;4.686;2022-08-21T14:59:51;9.05;;;2.30;;
44139;SDS011;29803;51.048;4.686;2022-08-21T15:02:21;11.63;;;1.92;;
44139;SDS011;29803;51.048;4.686;2022-08-21T15:04:52;8.85;;;1.60;;
44139;SDS011;29803;51.048;4.686;2022-08-21T15:07:22;10.65;;;2.28;;
44139;SDS011;29803;51.048;4.686;2022-08-21T15:09:53;8.13;;;2.22;;
44139;SDS011;29803;51.048;4.686;2022-08-21T15:12:23;8.95;;;1.92;;
44139;SDS011;29803;51.048;4.686;2022-08-21T15:14:55;4.80;;;1.50;;
44139;SDS011;29803;51.048;4.686;2022-08-21T15:17:25;9.07;;;1.83;;
44139;SDS011;29803;51.048;4.686;2022-08-21T15:19:56;7.05;;;2.15;;
44139;SDS011;29803;51.048;4.686;2022-08-21T15:22:26;7.82;;;1.90;;
44139;SDS011;29803;51.048;4.686;2022-08-21T15:24:57;9.90;;;1.83;;
44139;SDS011;29803;51.048;4.686;2022-08-21T15:27:28;8.15;;;1.77;;
44139;SDS011;29803;51.048;4.686;2022-08-21T15:29:59;6.32;;;1.95;;
44139;SDS011;29803;51.048;4.686;2022-08-21T15:32:29;6.65;;;1.83;;
44139;SDS011;29803;51.048;4.686;2022-08-21T15:35:00;9.70;;;1.98;;
44139;SDS011;29803;51.048;4.686;2022-08-21T15:37:32;10.52;;;2.10;;
44139;SDS011;29803;51.048;4.686;2022-08-21T15:40:03;7.95;;;2.05;;
44139;SDS011;29803;51.048;4.686;2022-08-21T15:42:34;15.57;;;2.08;;
44139;SDS011;29803;51.048;4.686;2022-08-21T15:45:05;8.90;;;1.67;;
44139;SDS011;29803;51.048;4.686;2022-08-21T15:47:37;8.65;;;2.08;;
44139;SDS011;29803;51.048;4.686;2022-08-21T15:50:08;9.45;;;2.35;;
44139;SDS011;29803;51.048;4.686;2022-08-21T15:52:39;6.60;;;1.85;;
44139;SDS011;29803;51.048;4.686;2022-08-21T15:55:13;7.97;;;1.63;;
44139;SDS011;29803;51.048;4.686;2022-08-21T15:57:45;8.70;;;2.30;;
44139;SDS011;29803;51.048;4.686;2022-08-21T16:00:19;4.60;;;1.30;;
44139;SDS011;29803;51.048;4.686;2022-08-21T16:02:54;10.60;;;1.70;;
44139;SDS011;29803;51.048;4.686;2022-08-21T16:05:27;6.10;;;1.60;;
44139;SDS011;29803;51.048;4.686;2022-08-21T16:07:58;6.00;;;1.98;;
44139;SDS011;29803;51.048;4.686;2022-08-21T16:10:28;14.15;;;2.50;;
44139;SDS011;29803;51.048;4.686;2022-08-21T16:13:00;9.52;;;1.88;;
44139;SDS011;29803;51.048;4.686;2022-08-21T16:15:32;9.25;;;2.30;;
44139;SDS011;29803;51.048;4.686;2022-08-21T16:18:03;10.07;;;2.13;;
44139;SDS011;29803;51.048;4.686;2022-08-21T16:20:34;7.82;;;1.75;;
44139;SDS011;29803;51.048;4.686;2022-08-21T16:23:04;7.55;;;2.25;;
44139;SDS011;29803;51.048;4.686;2022-08-21T16:25:36;6.63;;;1.85;;
44139;SDS011;29803;51.048;4.686;2022-08-21T16:28:08;8.25;;;1.88;;
44139;SDS011;29803;51.048;4.686;2022-08-21T16:30:43;7.85;;;2.50;;
44139;SDS011;29803;51.048;4.686;2022-08-21T16:33:20;8.27;;;2.10;;
44139;SDS011;29803;51.048;4.686;2022-08-21T16:36:07;10.15;;;2.30;;
44139;SDS011;29803;51.048;4.686;2022-08-21T16:38:39;9.65;;;1.88;;
44139;SDS011;29803;51.048;4.686;2022-08-21T16:41:12;8.43;;;1.80;;
44139;SDS011;29803;51.048;4.686;2022-08-21T16:43:45;9.65;;;2.30;;
44139;SDS011;29803;51.048;4.686;2022-08-21T16:46:16;13.82;;;2.25;;
44139;SDS011;29803;51.048;4.686;2022-08-21T16:48:48;10.20;;;1.80;;
44139;SDS011;29803;51.048;4.686;2022-08-21T16:51:19;9.27;;;1.95;;
44139;SDS011;29803;51.048;4.686;2022-08-21T16:53:51;8.07;;;1.90;;
44139;SDS011;29803;51.048;4.686;2022-08-21T16:56:23;11.82;;;2.35;;
44139;SDS011;29803;51.048;4.686;2022-08-21T16:58:54;10.75;;;1.92;;
44139;SDS011;29803;51.048;4.686;2022-08-21T17:01:27;9.68;;;2.28;;